sensor_id;sensor_type;location;lat;lon;timestamp;P1;durP1;ratioP1;P2;durP2;ratioP2
70102;SDS011;57470;50.034;15.256;2023-03-14T00:02:05;5.20;;;2.03;;
70102;SDS011;57470;50.034;15.256;2023-03-14T00:04:30;6.78;;;2.00;;
70102;SDS011;57470;50.034;15.256;2023-03-14T00:06:56;4.53;;;1.57;;
70102;SDS011;57470;50.034;15.256;2023-03-14T00:09:21;6.50;;;1.40;;
70102;SDS011;57470;50.034;15.256;2023-03-14T00:11:46;4.90;;;1.90;;
70102;SDS011;57470;50.034;15.256;2023-03-14T00:14:12;4.73;;;1.33;;
70102;SDS011;57470;50.034;15.256;2023-03-14T00:16:38;3.28;;;1.02;;
70102;SDS011;57470;50.034;15.256;2023-03-14T00:19:03;4.40;;;1.57;;
70102;SDS011;57470;50.034;15.256;2023-03-14T00:21:28;4.17;;;1.47;;
70102;SDS011;57470;50.034;15.256;2023-03-14T00:23:54;5.97;;;1.43;;
70102;SDS011;57470;50.034;15.256;2023-03-14T00:26:20;4.83;;;1.50;;
70102;SDS011;57470;50.034;15.256;2023-03-14T00:28:46;3.03;;;1.40;;
70102;SDS011;57470;50.034;15.256;2023-03-14T00:31:15;11.88;;;3.63;;
70102;SDS011;57470;50.034;15.256;2023-03-14T00:33:41;8.63;;;2.87;;
70102;SDS011;57470;50.034;15.256;2023-03-14T00:36:09;4.88;;;1.30;;
70102;SDS011;57470;50.034;15.256;2023-03-14T00:38:36;5.85;;;1.65;;
70102;SDS011;57470;50.034;15.256;2023-03-14T00:41:04;6.10;;;1.97;;
70102;SDS011;57470;50.034;15.256;2023-03-14T00:43:31;5.00;;;1.35;;
70102;SDS011;57470;50.034;15.256;2023-03-14T00:45:56;5.00;;;1.67;;
70102;SDS011;57470;50.034;15.256;2023-03-14T00:48:22;8.23;;;2.30;;
70102;SDS011;57470;50.034;15.256;2023-03-14T00:50:47;7.53;;;2.27;;
70102;SDS011;57470;50.034;15.256;2023-03-14T00:53:13;4.57;;;1.95;;
70102;SDS011;57470;50.034;15.256;2023-03-14T00:55:39;5.17;;;1.43;;
70102;SDS011;57470;50.034;15.256;2023-03-14T00:58:05;13.43;;;1.60;;
70102;SDS011;57470;50.034;15.256;2023-03-14T01:00:32;6.93;;;1.40;;
70102;SDS011;57470;50.034;15.256;2023-03-14T01:02:57;5.32;;;1.55;;
70102;SDS011;57470;50.034;15.256;2023-03-14T01:05:23;5.40;;;1.80;;
70102;SDS011;57470;50.034;15.256;2023-03-14T01:07:49;4.33;;;1.80;;
70102;SDS011;57470;50.034;15.256;2023-03-14T01:10:14;4.82;;;1.23;;
70102;SDS011;57470;50.034;15.256;2023-03-14T01:12:40;5.80;;;1.57;;
70102;SDS011;57470;50.034;15.256;2023-03-14T01:15:06;6.53;;;1.55;;
70102;SDS011;57470;50.034;15.256;2023-03-14T01:17:32;4.60;;;1.40;;
70102;SDS011;57470;50.034;15.256;2023-03-14T01:19:57;7.07;;;1.58;;
70102;SDS011;57470;50.034;15.256;2023-03-14T01:22:22;5.23;;;1.60;;
70102;SDS011;57470;50.034;15.256;2023-03-14T01:24:48;3.97;;;1.10;;
70102;SDS011;57470;50.034;15.256;2023-03-14T01:27:13;5.03;;;1.30;;
70102;SDS011;57470;50.034;15.256;2023-03-14T01:29:38;4.20;;;0.97;;
70102;SDS011;57470;50.034;15.256;2023-03-14T01:32:04;5.50;;;1.40;;
70102;SDS011;57470;50.034;15.256;2023-03-14T01:34:30;6.97;;;1.48;;
70102;SDS011;57470;50.034;15.256;2023-03-14T01:36:55;3.70;;;1.30;;
70102;SDS011;57470;50.034;15.256;2023-03-14T01:39:20;5.07;;;1.40;;
70102;SDS011;57470;50.034;15.256;2023-03-14T01:41:46;4.37;;;1.73;;
70102;SDS011;57470;50.034;15.256;2023-03-14T01:44:11;5.30;;;2.10;;
70102;SDS011;57470;50.034;15.256;2023-03-14T01:54:31;5.00;;;1.70;;
70102;SDS011;57470;50.034;15.256;2023-03-14T01:57:05;4.00;;;1.35;;
70102;SDS011;57470;50.034;15.256;2023-03-14T01:59:34;5.33;;;1.00;;
70102;SDS011;57470;50.034;15.256;2023-03-14T02:02:02;3.90;;;1.15;;
70102;SDS011;57470;50.034;15.256;2023-03-14T02:04:31;4.30;;;0.90;;
70102;SDS011;57470;50.034;15.256;2023-03-14T02:07:22;2.63;;;0.50;;
70102;SDS011;57470;50.034;15.256;2023-03-14T02:09:55;4.93;;;1.13;;
70102;SDS011;57470;50.034;15.256;2023-03-14T02:12:22;4.57;;;1.33;;
70102;SDS011;57470;50.034;15.256;2023-03-14T02:14:48;4.88;;;1.67;;
70102;SDS011;57470;50.034;15.256;2023-03-14T02:17:14;4.93;;;1.60;;
70102;SDS011;57470;50.034;15.256;2023-03-14T02:22:49;4.82;;;1.23;;
70102;SDS011;57470;50.034;15.256;2023-03-14T02:27:47;3.28;;;0.98;;
70102;SDS011;57470;50.034;15.256;2023-03-14T02:30:17;4.57;;;1.88;;
70102;SDS011;57470;50.034;15.256;2023-03-14T02:32:46;5.10;;;1.98;;
70102;SDS011;57470;50.034;15.256;2023-03-14T02:35:18;5.43;;;1.30;;
70102;SDS011;57470;50.034;15.256;2023-03-14T02:40:14;3.80;;;1.50;;
70102;SDS011;57470;50.034;15.256;2023-03-14T02:42:39;8.90;;;1.63;;
70102;SDS011;57470;50.034;15.256;2023-03-14T02:47:33;3.33;;;1.30;;
70102;SDS011;57470;50.034;15.256;2023-03-14T02:50:11;5.73;;;1.60;;
70102;SDS011;57470;50.034;15.256;2023-03-14T02:52:39;5.53;;;1.55;;
70102;SDS011;57470;50.034;15.256;2023-03-14T02:55:04;7.33;;;1.77;;
70102;SDS011;57470;50.034;15.256;2023-03-14T02:57:31;4.20;;;1.48;;
70102;SDS011;57470;50.034;15.256;2023-03-14T03:00:01;4.22;;;0.88;;
70102;SDS011;57470;50.034;15.256;2023-03-14T03:02:32;5.25;;;1.00;;
70102;SDS011;57470;50.034;15.256;2023-03-14T03:04:58;5.67;;;1.60;;
70102;SDS011;57470;50.034;15.256;2023-03-14T03:07:25;5.30;;;1.70;;
70102;SDS011;57470;50.034;15.256;2023-03-14T03:09:52;4.72;;;1.27;;
70102;SDS011;57470;50.034;15.256;2023-03-14T03:12:19;3.42;;;1.20;;
70102;SDS011;57470;50.034;15.256;2023-03-14T03:14:45;3.85;;;1.10;;
70102;SDS011;57470;50.034;15.256;2023-03-14T03:17:12;3.90;;;1.50;;
70102;SDS011;57470;50.034;15.256;2023-03-14T03:19:39;4.43;;;1.50;;
70102;SDS011;57470;50.034;15.256;2023-03-14T03:22:06;3.90;;;1.83;;
70102;SDS011;57470;50.034;15.256;2023-03-14T03:24:34;4.80;;;1.48;;
70102;SDS011;57470;50.034;15.256;2023-03-14T03:27:01;5.85;;;1.80;;
70102;SDS011;57470;50.034;15.256;2023-03-14T03:29:28;3.63;;;1.40;;
70102;SDS011;57470;50.034;15.256;2023-03-14T03:31:55;4.13;;;1.23;;
70102;SDS011;57470;50.034;15.256;2023-03-14T03:34:22;4.13;;;1.50;;
70102;SDS011;57470;50.034;15.256;2023-03-14T03:36:49;3.58;;;1.50;;
70102;SDS011;57470;50.034;15.256;2023-03-14T03:39:16;5.30;;;1.20;;
70102;SDS011;57470;50.034;15.256;2023-03-14T03:41:43;4.80;;;1.37;;
70102;SDS011;57470;50.034;15.256;2023-03-14T03:44:09;3.25;;;1.27;;
70102;SDS011;57470;50.034;15.256;2023-03-14T03:46:37;4.10;;;1.17;;
70102;SDS011;57470;50.034;15.256;2023-03-14T03:49:02;4.20;;;1.57;;
70102;SDS011;57470;50.034;15.256;2023-03-14T03:51:28;3.97;;;1.23;;
70102;SDS011;57470;50.034;15.256;2023-03-14T03:53:53;6.60;;;1.80;;
70102;SDS011;57470;50.034;15.256;2023-03-14T03:56:18;3.90;;;0.83;;
70102;SDS011;57470;50.034;15.256;2023-03-14T03:58:44;5.93;;;1.73;;
70102;SDS011;57470;50.034;15.256;2023-03-14T04:01:10;3.20;;;1.20;;
70102;SDS011;57470;50.034;15.256;2023-03-14T04:03:38;5.95;;;1.67;;
70102;SDS011;57470;50.034;15.256;2023-03-14T04:06:11;5.43;;;1.50;;
70102;SDS011;57470;50.034;15.256;2023-03-14T04:08:38;4.63;;;1.17;;
70102;SDS011;57470;50.034;15.256;2023-03-14T04:11:05;6.30;;;2.28;;
70102;SDS011;57470;50.034;15.256;2023-03-14T04:13:31;5.37;;;1.90;;
70102;SDS011;57470;50.034;15.256;2023-03-14T04:15:56;6.07;;;0.88;;
70102;SDS011;57470;50.034;15.256;2023-03-14T04:18:22;3.77;;;1.57;;
70102;SDS011;57470;50.034;15.256;2023-03-14T04:20:52;4.88;;;1.85;;
70102;SDS011;57470;50.034;15.256;2023-03-14T04:23:19;2.37;;;0.70;;
70102;SDS011;57470;50.034;15.256;2023-03-14T04:25:45;3.33;;;1.08;;
70102;SDS011;57470;50.034;15.256;2023-03-14T04:28:11;4.67;;;1.60;;
70102;SDS011;57470;50.034;15.256;2023-03-14T04:30:36;3.60;;;1.10;;
70102;SDS011;57470;50.034;15.256;2023-03-14T04:33:01;5.20;;;1.80;;
70102;SDS011;57470;50.034;15.256;2023-03-14T04:35:27;4.73;;;1.33;;
70102;SDS011;57470;50.034;15.256;2023-03-14T04:37:52;3.37;;;1.00;;
70102;SDS011;57470;50.034;15.256;2023-03-14T04:40:18;4.37;;;1.60;;
70102;SDS011;57470;50.034;15.256;2023-03-14T04:42:43;12.20;;;1.67;;
70102;SDS011;57470;50.034;15.256;2023-03-14T04:45:09;6.43;;;1.43;;
70102;SDS011;57470;50.034;15.256;2023-03-14T04:47:34;4.60;;;0.80;;
70102;SDS011;57470;50.034;15.256;2023-03-14T04:50:00;6.22;;;2.35;;
70102;SDS011;57470;50.034;15.256;2023-03-14T04:52:26;6.77;;;2.13;;
70102;SDS011;57470;50.034;15.256;2023-03-14T04:54:51;5.20;;;1.83;;
70102;SDS011;57470;50.034;15.256;2023-03-14T04:57:17;4.70;;;1.23;;
70102;SDS011;57470;50.034;15.256;2023-03-14T04:59:42;3.13;;;1.03;;
70102;SDS011;57470;50.034;15.256;2023-03-14T05:02:07;4.00;;;1.23;;
70102;SDS011;57470;50.034;15.256;2023-03-14T05:04:33;5.13;;;1.93;;
70102;SDS011;57470;50.034;15.256;2023-03-14T05:06:58;5.40;;;1.80;;
70102;SDS011;57470;50.034;15.256;2023-03-14T05:09:24;4.23;;;1.50;;
70102;SDS011;57470;50.034;15.256;2023-03-14T05:11:50;4.60;;;2.00;;
70102;SDS011;57470;50.034;15.256;2023-03-14T05:14:16;3.80;;;1.43;;
70102;SDS011;57470;50.034;15.256;2023-03-14T05:16:41;4.60;;;1.40;;
70102;SDS011;57470;50.034;15.256;2023-03-14T05:19:06;6.87;;;1.87;;
70102;SDS011;57470;50.034;15.256;2023-03-14T05:21:32;5.57;;;1.33;;
70102;SDS011;57470;50.034;15.256;2023-03-14T05:23:57;3.57;;;0.93;;
70102;SDS011;57470;50.034;15.256;2023-03-14T05:26:23;5.07;;;1.60;;
70102;SDS011;57470;50.034;15.256;2023-03-14T05:28:48;6.05;;;1.92;;
70102;SDS011;57470;50.034;15.256;2023-03-14T05:31:13;4.93;;;1.33;;
70102;SDS011;57470;50.034;15.256;2023-03-14T05:33:39;4.87;;;1.50;;
70102;SDS011;57470;50.034;15.256;2023-03-14T05:36:05;3.87;;;1.03;;
70102;SDS011;57470;50.034;15.256;2023-03-14T05:38:30;3.42;;;1.15;;
70102;SDS011;57470;50.034;15.256;2023-03-14T05:40:56;6.13;;;1.57;;
70102;SDS011;57470;50.034;15.256;2023-03-14T05:43:21;5.75;;;1.85;;
70102;SDS011;57470;50.034;15.256;2023-03-14T05:45:47;11.97;;;1.57;;
70102;SDS011;57470;50.034;15.256;2023-03-14T05:48:12;4.77;;;1.23;;
70102;SDS011;57470;50.034;15.256;2023-03-14T05:50:38;3.50;;;0.90;;
70102;SDS011;57470;50.034;15.256;2023-03-14T05:53:03;4.27;;;1.30;;
70102;SDS011;57470;50.034;15.256;2023-03-14T05:55:29;4.68;;;1.17;;
70102;SDS011;57470;50.034;15.256;2023-03-14T05:57:54;6.30;;;1.93;;
70102;SDS011;57470;50.034;15.256;2023-03-14T06:00:20;5.73;;;2.40;;
70102;SDS011;57470;50.034;15.256;2023-03-14T06:02:46;6.07;;;1.83;;
70102;SDS011;57470;50.034;15.256;2023-03-14T06:05:11;3.83;;;1.40;;
70102;SDS011;57470;50.034;15.256;2023-03-14T06:07:37;4.60;;;1.58;;
70102;SDS011;57470;50.034;15.256;2023-03-14T06:10:02;5.07;;;1.60;;
70102;SDS011;57470;50.034;15.256;2023-03-14T06:12:28;5.47;;;1.53;;
70102;SDS011;57470;50.034;15.256;2023-03-14T06:14:53;4.70;;;1.40;;
70102;SDS011;57470;50.034;15.256;2023-03-14T06:17:19;6.47;;;2.47;;
70102;SDS011;57470;50.034;15.256;2023-03-14T06:19:44;4.57;;;1.50;;
70102;SDS011;57470;50.034;15.256;2023-03-14T06:22:10;4.10;;;1.10;;
70102;SDS011;57470;50.034;15.256;2023-03-14T06:24:35;6.68;;;1.33;;
70102;SDS011;57470;50.034;15.256;2023-03-14T06:27:00;4.40;;;1.53;;
70102;SDS011;57470;50.034;15.256;2023-03-14T06:29:27;4.55;;;1.55;;
70102;SDS011;57470;50.034;15.256;2023-03-14T06:31:53;4.90;;;1.40;;
70102;SDS011;57470;50.034;15.256;2023-03-14T06:34:19;4.63;;;1.70;;
70102;SDS011;57470;50.034;15.256;2023-03-14T06:36:45;5.30;;;1.53;;
70102;SDS011;57470;50.034;15.256;2023-03-14T06:39:10;4.00;;;1.07;;
70102;SDS011;57470;50.034;15.256;2023-03-14T06:41:35;6.20;;;1.47;;
70102;SDS011;57470;50.034;15.256;2023-03-14T06:44:01;6.13;;;1.73;;
70102;SDS011;57470;50.034;15.256;2023-03-14T06:46:26;4.18;;;1.27;;
70102;SDS011;57470;50.034;15.256;2023-03-14T06:48:52;6.33;;;1.43;;
70102;SDS011;57470;50.034;15.256;2023-03-14T06:51:18;4.55;;;1.10;;
70102;SDS011;57470;50.034;15.256;2023-03-14T06:53:43;5.50;;;1.40;;
70102;SDS011;57470;50.034;15.256;2023-03-14T06:56:09;3.90;;;1.63;;
70102;SDS011;57470;50.034;15.256;2023-03-14T06:58:34;5.10;;;1.73;;
70102;SDS011;57470;50.034;15.256;2023-03-14T07:01:00;4.40;;;1.73;;
70102;SDS011;57470;50.034;15.256;2023-03-14T07:03:25;4.07;;;1.47;;
70102;SDS011;57470;50.034;15.256;2023-03-14T07:05:51;5.60;;;1.08;;
70102;SDS011;57470;50.034;15.256;2023-03-14T07:08:17;5.00;;;1.50;;
70102;SDS011;57470;50.034;15.256;2023-03-14T07:10:43;3.83;;;0.98;;
70102;SDS011;57470;50.034;15.256;2023-03-14T07:13:10;4.77;;;1.20;;
70102;SDS011;57470;50.034;15.256;2023-03-14T07:15:36;6.50;;;1.40;;
70102;SDS011;57470;50.034;15.256;2023-03-14T07:18:03;4.43;;;1.73;;
70102;SDS011;57470;50.034;15.256;2023-03-14T07:20:31;4.90;;;1.50;;
70102;SDS011;57470;50.034;15.256;2023-03-14T07:22:58;5.40;;;1.83;;
70102;SDS011;57470;50.034;15.256;2023-03-14T07:25:28;4.23;;;1.60;;
70102;SDS011;57470;50.034;15.256;2023-03-14T07:27:54;4.63;;;1.42;;
70102;SDS011;57470;50.034;15.256;2023-03-14T07:30:20;4.73;;;1.90;;
70102;SDS011;57470;50.034;15.256;2023-03-14T07:32:45;5.72;;;1.70;;
70102;SDS011;57470;50.034;15.256;2023-03-14T07:35:10;6.47;;;2.17;;
70102;SDS011;57470;50.034;15.256;2023-03-14T07:37:36;6.20;;;2.07;;
70102;SDS011;57470;50.034;15.256;2023-03-14T07:40:01;7.57;;;2.23;;
70102;SDS011;57470;50.034;15.256;2023-03-14T07:42:30;8.18;;;2.22;;
70102;SDS011;57470;50.034;15.256;2023-03-14T07:44:55;8.67;;;2.73;;
70102;SDS011;57470;50.034;15.256;2023-03-14T07:47:21;6.20;;;1.70;;
70102;SDS011;57470;50.034;15.256;2023-03-14T07:49:46;5.77;;;2.07;;
70102;SDS011;57470;50.034;15.256;2023-03-14T07:52:11;5.07;;;1.30;;
70102;SDS011;57470;50.034;15.256;2023-03-14T07:54:37;3.30;;;0.95;;
70102;SDS011;57470;50.034;15.256;2023-03-14T07:57:02;5.50;;;1.67;;
70102;SDS011;57470;50.034;15.256;2023-03-14T07:59:28;4.80;;;1.10;;
70102;SDS011;57470;50.034;15.256;2023-03-14T08:01:54;6.67;;;1.77;;
70102;SDS011;57470;50.034;15.256;2023-03-14T08:04:19;4.50;;;1.10;;
70102;SDS011;57470;50.034;15.256;2023-03-14T08:06:44;3.53;;;1.07;;
70102;SDS011;57470;50.034;15.256;2023-03-14T08:09:10;3.93;;;1.23;;
70102;SDS011;57470;50.034;15.256;2023-03-14T08:11:35;3.03;;;0.87;;
70102;SDS011;57470;50.034;15.256;2023-03-14T08:14:01;3.93;;;1.23;;
70102;SDS011;57470;50.034;15.256;2023-03-14T08:16:27;12.40;;;1.23;;
70102;SDS011;57470;50.034;15.256;2023-03-14T08:18:52;11.43;;;3.27;;
70102;SDS011;57470;50.034;15.256;2023-03-14T08:21:17;10.87;;;2.43;;
70102;SDS011;57470;50.034;15.256;2023-03-14T08:23:43;6.23;;;1.50;;
70102;SDS011;57470;50.034;15.256;2023-03-14T08:26:08;8.17;;;2.30;;
70102;SDS011;57470;50.034;15.256;2023-03-14T08:28:34;7.33;;;2.17;;
70102;SDS011;57470;50.034;15.256;2023-03-14T08:30:59;2.88;;;0.70;;
70102;SDS011;57470;50.034;15.256;2023-03-14T08:33:25;7.90;;;0.67;;
70102;SDS011;57470;50.034;15.256;2023-03-14T08:35:55;3.25;;;1.20;;
70102;SDS011;57470;50.034;15.256;2023-03-14T08:38:22;3.30;;;0.80;;
70102;SDS011;57470;50.034;15.256;2023-03-14T08:40:48;3.33;;;0.83;;
70102;SDS011;57470;50.034;15.256;2023-03-14T08:43:14;2.60;;;0.80;;
70102;SDS011;57470;50.034;15.256;2023-03-14T08:45:40;2.08;;;0.50;;
70102;SDS011;57470;50.034;15.256;2023-03-14T08:48:05;3.17;;;1.30;;
70102;SDS011;57470;50.034;15.256;2023-03-14T08:50:31;4.17;;;0.70;;
70102;SDS011;57470;50.034;15.256;2023-03-14T08:52:56;7.00;;;1.97;;
70102;SDS011;57470;50.034;15.256;2023-03-14T08:55:24;10.70;;;2.67;;
70102;SDS011;57470;50.034;15.256;2023-03-14T08:57:52;9.20;;;2.58;;
70102;SDS011;57470;50.034;15.256;2023-03-14T09:00:18;5.90;;;1.70;;
70102;SDS011;57470;50.034;15.256;2023-03-14T09:02:43;5.65;;;1.50;;
70102;SDS011;57470;50.034;15.256;2023-03-14T09:05:09;5.27;;;1.27;;
70102;SDS011;57470;50.034;15.256;2023-03-14T09:07:35;4.40;;;1.13;;
70102;SDS011;57470;50.034;15.256;2023-03-14T09:10:01;2.60;;;0.77;;
70102;SDS011;57470;50.034;15.256;2023-03-14T09:12:26;3.38;;;0.90;;
70102;SDS011;57470;50.034;15.256;2023-03-14T09:14:52;4.53;;;0.90;;
70102;SDS011;57470;50.034;15.256;2023-03-14T09:17:17;6.13;;;2.70;;
70102;SDS011;57470;50.034;15.256;2023-03-14T09:19:43;4.47;;;1.03;;
70102;SDS011;57470;50.034;15.256;2023-03-14T09:22:10;4.13;;;1.13;;
70102;SDS011;57470;50.034;15.256;2023-03-14T09:24:35;8.67;;;1.50;;
70102;SDS011;57470;50.034;15.256;2023-03-14T09:27:00;5.37;;;1.73;;
70102;SDS011;57470;50.034;15.256;2023-03-14T09:29:26;3.13;;;0.73;;
70102;SDS011;57470;50.034;15.256;2023-03-14T09:31:52;9.30;;;1.33;;
70102;SDS011;57470;50.034;15.256;2023-03-14T09:34:17;4.90;;;2.00;;
70102;SDS011;57470;50.034;15.256;2023-03-14T09:36:43;7.00;;;1.95;;
70102;SDS011;57470;50.034;15.256;2023-03-14T09:39:09;6.90;;;1.57;;
70102;SDS011;57470;50.034;15.256;2023-03-14T09:41:36;5.75;;;1.33;;
70102;SDS011;57470;50.034;15.256;2023-03-14T09:44:10;5.25;;;2.00;;
70102;SDS011;57470;50.034;15.256;2023-03-14T09:46:40;5.32;;;0.82;;
70102;SDS011;57470;50.034;15.256;2023-03-14T09:49:11;3.97;;;1.20;;
70102;SDS011;57470;50.034;15.256;2023-03-14T09:51:42;2.42;;;0.65;;
70102;SDS011;57470;50.034;15.256;2023-03-14T09:57:14;4.38;;;1.20;;
70102;SDS011;57470;50.034;15.256;2023-03-14T09:59:42;3.65;;;1.17;;
70102;SDS011;57470;50.034;15.256;2023-03-14T10:02:14;4.27;;;0.90;;
70102;SDS011;57470;50.034;15.256;2023-03-14T10:04:43;6.35;;;1.02;;
70102;SDS011;57470;50.034;15.256;2023-03-14T10:07:31;3.40;;;1.02;;
70102;SDS011;57470;50.034;15.256;2023-03-14T10:09:57;3.22;;;0.90;;
70102;SDS011;57470;50.034;15.256;2023-03-14T10:12:30;5.85;;;0.90;;
70102;SDS011;57470;50.034;15.256;2023-03-14T10:15:02;2.80;;;0.80;;
70102;SDS011;57470;50.034;15.256;2023-03-14T10:17:37;2.45;;;0.47;;
70102;SDS011;57470;50.034;15.256;2023-03-14T10:20:04;2.20;;;0.35;;
70102;SDS011;57470;50.034;15.256;2023-03-14T10:22:30;3.08;;;1.33;;
70102;SDS011;57470;50.034;15.256;2023-03-14T10:25:00;2.95;;;0.50;;
70102;SDS011;57470;50.034;15.256;2023-03-14T10:27:28;2.13;;;0.47;;
70102;SDS011;57470;50.034;15.256;2023-03-14T10:29:59;1.90;;;0.30;;
70102;SDS011;57470;50.034;15.256;2023-03-14T10:32:28;2.45;;;0.60;;
70102;SDS011;57470;50.034;15.256;2023-03-14T10:37:35;2.75;;;0.60;;
70102;SDS011;57470;50.034;15.256;2023-03-14T10:40:01;6.90;;;0.57;;
70102;SDS011;57470;50.034;15.256;2023-03-14T10:42:30;2.05;;;0.30;;
70102;SDS011;57470;50.034;15.256;2023-03-14T10:45:35;2.45;;;0.70;;
70102;SDS011;57470;50.034;15.256;2023-03-14T10:50:40;2.20;;;0.50;;
70102;SDS011;57470;50.034;15.256;2023-03-14T10:53:24;3.03;;;1.00;;
70102;SDS011;57470;50.034;15.256;2023-03-14T10:55:50;2.33;;;0.55;;
70102;SDS011;57470;50.034;15.256;2023-03-14T11:07:03;2.70;;;0.75;;
70102;SDS011;57470;50.034;15.256;2023-03-14T11:09:36;6.97;;;0.80;;
70102;SDS011;57470;50.034;15.256;2023-03-14T11:15:20;2.53;;;0.60;;
70102;SDS011;57470;50.034;15.256;2023-03-14T11:25:47;1.70;;;0.33;;
70102;SDS011;57470;50.034;15.256;2023-03-14T11:31:47;2.35;;;0.60;;
70102;SDS011;57470;50.034;15.256;2023-03-14T11:37:03;4.35;;;0.47;;
70102;SDS011;57470;50.034;15.256;2023-03-14T11:39:37;2.00;;;0.43;;
70102;SDS011;57470;50.034;15.256;2023-03-14T11:42:04;4.72;;;1.15;;
70102;SDS011;57470;50.034;15.256;2023-03-14T11:44:37;2.92;;;0.95;;
70102;SDS011;57470;50.034;15.256;2023-03-14T11:47:12;3.03;;;0.60;;
70102;SDS011;57470;50.034;15.256;2023-03-14T11:50:14;3.13;;;0.82;;
70102;SDS011;57470;50.034;15.256;2023-03-14T11:55:27;2.45;;;0.65;;
70102;SDS011;57470;50.034;15.256;2023-03-14T11:57:58;3.03;;;0.70;;
70102;SDS011;57470;50.034;15.256;2023-03-14T12:00:27;4.20;;;1.13;;
70102;SDS011;57470;50.034;15.256;2023-03-14T12:05:37;2.13;;;0.60;;
70102;SDS011;57470;50.034;15.256;2023-03-14T12:10:39;2.40;;;0.63;;
70102;SDS011;57470;50.034;15.256;2023-03-14T12:13:15;3.53;;;0.60;;
70102;SDS011;57470;50.034;15.256;2023-03-14T12:15:48;2.50;;;0.60;;
70102;SDS011;57470;50.034;15.256;2023-03-14T12:18:32;3.83;;;0.53;;
70102;SDS011;57470;50.034;15.256;2023-03-14T12:21:07;2.90;;;0.70;;
70102;SDS011;57470;50.034;15.256;2023-03-14T12:23:48;2.03;;;0.50;;
70102;SDS011;57470;50.034;15.256;2023-03-14T12:26:18;2.08;;;0.43;;
70102;SDS011;57470;50.034;15.256;2023-03-14T12:28:49;3.85;;;1.00;;
70102;SDS011;57470;50.034;15.256;2023-03-14T12:42:02;2.47;;;0.50;;
70102;SDS011;57470;50.034;15.256;2023-03-14T12:44:40;3.57;;;0.83;;
70102;SDS011;57470;50.034;15.256;2023-03-14T12:49:45;3.00;;;0.70;;
70102;SDS011;57470;50.034;15.256;2023-03-14T12:52:16;2.33;;;0.60;;
70102;SDS011;57470;50.034;15.256;2023-03-14T12:54:54;2.88;;;0.90;;
70102;SDS011;57470;50.034;15.256;2023-03-14T13:00:13;3.00;;;0.73;;
70102;SDS011;57470;50.034;15.256;2023-03-14T13:02:44;3.13;;;0.73;;
70102;SDS011;57470;50.034;15.256;2023-03-14T13:05:13;3.45;;;0.77;;
70102;SDS011;57470;50.034;15.256;2023-03-14T13:12:56;2.03;;;0.30;;
70102;SDS011;57470;50.034;15.256;2023-03-14T13:23:26;135.85;;;33.38;;
70102;SDS011;57470;50.034;15.256;2023-03-14T13:25:53;113.60;;;29.33;;
70102;SDS011;57470;50.034;15.256;2023-03-14T13:28:19;85.43;;;22.13;;
70102;SDS011;57470;50.034;15.256;2023-03-14T13:30:49;94.00;;;27.38;;
70102;SDS011;57470;50.034;15.256;2023-03-14T13:33:21;42.10;;;12.63;;
70102;SDS011;57470;50.034;15.256;2023-03-14T13:35:58;11.03;;;3.23;;
70102;SDS011;57470;50.034;15.256;2023-03-14T13:38:29;7.10;;;1.92;;
70102;SDS011;57470;50.034;15.256;2023-03-14T13:40:58;6.25;;;2.17;;
70102;SDS011;57470;50.034;15.256;2023-03-14T13:43:27;4.68;;;1.10;;
70102;SDS011;57470;50.034;15.256;2023-03-14T13:45:56;2.70;;;0.50;;
70102;SDS011;57470;50.034;15.256;2023-03-14T13:48:30;2.37;;;0.43;;
70102;SDS011;57470;50.034;15.256;2023-03-14T13:50:59;2.95;;;0.70;;
70102;SDS011;57470;50.034;15.256;2023-03-14T13:53:30;2.47;;;0.60;;
70102;SDS011;57470;50.034;15.256;2023-03-14T13:55:57;3.13;;;0.73;;
70102;SDS011;57470;50.034;15.256;2023-03-14T13:58:28;3.13;;;0.63;;
70102;SDS011;57470;50.034;15.256;2023-03-14T14:00:59;2.03;;;0.47;;
70102;SDS011;57470;50.034;15.256;2023-03-14T14:03:30;2.85;;;0.70;;
70102;SDS011;57470;50.034;15.256;2023-03-14T14:05:57;2.65;;;0.45;;
70102;SDS011;57470;50.034;15.256;2023-03-14T14:08:23;3.05;;;0.63;;
70102;SDS011;57470;50.034;15.256;2023-03-14T14:10:50;5.72;;;0.85;;
70102;SDS011;57470;50.034;15.256;2023-03-14T14:13:20;3.50;;;0.90;;
70102;SDS011;57470;50.034;15.256;2023-03-14T14:15:48;2.50;;;0.47;;
70102;SDS011;57470;50.034;15.256;2023-03-14T14:18:18;2.63;;;0.50;;
70102;SDS011;57470;50.034;15.256;2023-03-14T14:20:50;2.78;;;0.55;;
70102;SDS011;57470;50.034;15.256;2023-03-14T14:23:19;2.50;;;0.50;;
70102;SDS011;57470;50.034;15.256;2023-03-14T14:25:50;2.95;;;0.60;;
70102;SDS011;57470;50.034;15.256;2023-03-14T14:28:27;2.83;;;0.80;;
70102;SDS011;57470;50.034;15.256;2023-03-14T14:31:04;3.30;;;0.88;;
70102;SDS011;57470;50.034;15.256;2023-03-14T14:33:46;3.30;;;0.75;;
70102;SDS011;57470;50.034;15.256;2023-03-14T14:36:29;2.83;;;0.50;;
70102;SDS011;57470;50.034;15.256;2023-03-14T14:39:03;5.40;;;1.33;;
70102;SDS011;57470;50.034;15.256;2023-03-14T14:41:31;3.95;;;0.73;;
70102;SDS011;57470;50.034;15.256;2023-03-14T14:43:59;2.50;;;0.50;;
70102;SDS011;57470;50.034;15.256;2023-03-14T14:46:26;3.03;;;0.60;;
70102;SDS011;57470;50.034;15.256;2023-03-14T14:48:58;2.15;;;0.50;;
70102;SDS011;57470;50.034;15.256;2023-03-14T14:51:32;2.33;;;0.60;;
70102;SDS011;57470;50.034;15.256;2023-03-14T14:54:01;4.05;;;0.95;;
70102;SDS011;57470;50.034;15.256;2023-03-14T14:56:30;3.22;;;0.73;;
70102;SDS011;57470;50.034;15.256;2023-03-14T14:59:01;4.13;;;0.50;;
70102;SDS011;57470;50.034;15.256;2023-03-14T15:03:59;2.85;;;0.73;;
70102;SDS011;57470;50.034;15.256;2023-03-14T15:06:26;10.95;;;4.10;;
70102;SDS011;57470;50.034;15.256;2023-03-14T15:08:54;7.32;;;2.35;;
70102;SDS011;57470;50.034;15.256;2023-03-14T15:11:21;11.90;;;4.63;;
70102;SDS011;57470;50.034;15.256;2023-03-14T15:13:49;8.15;;;2.53;;
70102;SDS011;57470;50.034;15.256;2023-03-14T15:16:15;11.52;;;4.38;;
70102;SDS011;57470;50.034;15.256;2023-03-14T15:18:43;11.55;;;3.80;;
70102;SDS011;57470;50.034;15.256;2023-03-14T15:21:11;11.33;;;3.03;;
70102;SDS011;57470;50.034;15.256;2023-03-14T15:23:36;10.20;;;3.43;;
70102;SDS011;57470;50.034;15.256;2023-03-14T15:26:02;13.67;;;5.67;;
70102;SDS011;57470;50.034;15.256;2023-03-14T15:28:30;10.48;;;4.70;;
70102;SDS011;57470;50.034;15.256;2023-03-14T15:30:56;4.53;;;2.40;;
70102;SDS011;57470;50.034;15.256;2023-03-14T15:33:23;8.32;;;3.28;;
70102;SDS011;57470;50.034;15.256;2023-03-14T15:35:50;4.57;;;1.55;;
70102;SDS011;57470;50.034;15.256;2023-03-14T15:38:16;3.92;;;1.02;;
70102;SDS011;57470;50.034;15.256;2023-03-14T15:40:46;4.30;;;0.90;;
70102;SDS011;57470;50.034;15.256;2023-03-14T15:43:12;7.35;;;2.28;;
70102;SDS011;57470;50.034;15.256;2023-03-14T15:45:37;8.60;;;1.77;;
70102;SDS011;57470;50.034;15.256;2023-03-14T15:48:03;4.33;;;1.43;;
70102;SDS011;57470;50.034;15.256;2023-03-14T15:50:29;3.33;;;0.87;;
70102;SDS011;57470;50.034;15.256;2023-03-14T15:52:54;3.97;;;1.10;;
70102;SDS011;57470;50.034;15.256;2023-03-14T15:55:21;8.88;;;2.13;;
70102;SDS011;57470;50.034;15.256;2023-03-14T15:57:46;6.87;;;1.30;;
70102;SDS011;57470;50.034;15.256;2023-03-14T16:00:13;7.33;;;2.37;;
70102;SDS011;57470;50.034;15.256;2023-03-14T16:02:43;7.10;;;2.03;;
70102;SDS011;57470;50.034;15.256;2023-03-14T16:05:10;10.63;;;1.40;;
70102;SDS011;57470;50.034;15.256;2023-03-14T16:07:37;6.30;;;2.13;;
70102;SDS011;57470;50.034;15.256;2023-03-14T16:10:03;5.37;;;1.73;;